Time;durP1;ratioP1;P1;durP2;ratioP2;P2;SDS_P1;SDS_P2;PMS_P1;PMS_P2;Temp;Humidity;BMP_temperature;BMP_pressure;BME280_temperature;BME280_humidity;BME280_pressure;Samples;Min_cycle;Max_cycle;Signal;HPM_P1;HPM_P2
2022/06/02 00:00:07;;;;;;;17.45;6.20;;;;;;;;;;4820005;29;20063;-72
2022/06/02 00:02:57;;;;;;;12.60;5.15;;;;;;;;;;4812943;29;20065;-73
2022/06/02 00:05:33;;;;;;;4.93;3.40;;;;;;;;;;4819020;29;20062;-73
2022/06/02 00:08:32;;;;;;;8.00;4.30;;;;;;;;;;4819697;29;20046;-73
2022/06/02 00:11:29;;;;;;;18.52;4.72;;;;;;;;;;4804924;29;20062;-75
2022/06/02 00:14:03;;;;;;;11.48;6.82;;;;;;;;;;4820094;29;20061;-74
2022/06/02 00:16:51;;;;;;;10.88;7.18;;;;;;;;;;4820013;29;20038;-74
2022/06/02 00:19:32;;;;;;;12.80;7.20;;;;;;;;;;4819130;29;20081;-72
2022/06/02 00:22:16;;;;;;;12.40;7.05;;;;;;;;;;4818920;29;20058;-75
2022/06/02 00:25:00;;;;;;;11.65;6.88;;;;;;;;;;4819504;29;20061;-73
2022/06/02 00:27:42;;;;;;;11.55;7.03;;;;;;;;;;4802722;29;20058;-77
2022/06/02 00:30:59;;;;;;;14.20;8.23;;;;;;;;;;4818837;29;20066;-73
2022/06/02 00:33:53;;;;;;;18.92;10.88;;;;;;;;;;4791393;29;20077;-74
2022/06/02 00:36:52;;;;;;;17.00;10.65;;;;;;;;;;4819312;29;20054;-73
2022/06/02 00:39:22;;;;;;;8.90;7.40;;;;;;;;;;4819239;29;20081;-71
2022/06/02 00:42:11;;;;;;;13.57;6.82;;;;;;;;;;4815121;29;20054;-73
2022/06/02 00:45:07;;;;;;;16.80;9.30;;;;;;;;;;4814778;29;20510;-72
2022/06/02 00:47:45;;;;;;;12.95;6.53;;;;;;;;;;4818276;29;20057;-73
2022/06/02 00:50:39;;;;;;;14.30;6.97;;;;;;;;;;4818012;29;20046;-74
2022/06/02 00:53:21;;;;;;;21.05;14.68;;;;;;;;;;4816569;29;20046;-71
2022/06/02 00:59:06;;;;;;;6.13;5.40;;;;;;;;;;4815884;29;20515;-73
2022/06/02 01:01:37;;;;;;;18.70;7.40;;;;;;;;;;4817988;29;21183;-74
2022/06/02 01:04:17;;;;;;;17.60;6.95;;;;;;;;;;4818329;29;20050;-75
2022/06/02 01:07:01;;;;;;;12.18;7.00;;;;;;;;;;4816561;29;20073;-73
2022/06/02 01:09:42;;;;;;;9.15;4.22;;;;;;;;;;4766432;30;20055;-74
2022/06/02 01:12:30;;;;;;;7.50;4.75;;;;;;;;;;4782341;30;20055;-74
2022/06/02 01:15:12;;;;;;;13.38;5.63;;;;;;;;;;4780921;30;20047;-74
2022/06/02 01:17:55;;;;;;;9.73;4.85;;;;;;;;;;4782154;30;20062;-74
2022/06/02 01:21:05;;;;;;;10.23;4.65;;;;;;;;;;4781367;30;20539;-74
2022/06/02 01:23:53;;;;;;;10.15;5.28;;;;;;;;;;4722737;30;20389;-75
2022/06/02 01:27:00;;;;;;;10.48;5.25;;;;;;;;;;4780459;30;20055;-73
2022/06/02 01:29:33;;;;;;;8.15;3.88;;;;;;;;;;4780366;30;20416;-73
2022/06/02 01:32:15;;;;;;;7.20;4.30;;;;;;;;;;4780673;30;20051;-73
2022/06/02 01:35:44;;;;;;;7.75;4.85;;;;;;;;;;4781185;30;20082;-74
2022/06/02 01:38:26;;;;;;;12.02;5.10;;;;;;;;;;4709557;30;20541;-73
2022/06/02 01:41:15;;;;;;;12.07;6.60;;;;;;;;;;4782143;30;20051;-73
2022/06/02 01:43:54;;;;;;;14.80;7.40;;;;;;;;;;4782699;30;20059;-73
2022/06/02 01:46:42;;;;;;;11.77;8.25;;;;;;;;;;4781900;30;20047;-72
2022/06/02 01:49:30;;;;;;;11.35;8.95;;;;;;;;;;4782491;30;20047;-74
2022/06/02 01:52:24;;;;;;;12.77;9.40;;;;;;;;;;4782257;30;20054;-74
2022/06/02 01:55:18;;;;;;;10.27;6.13;;;;;;;;;;4782256;30;20055;-74
2022/06/02 01:58:31;;;;;;;12.45;7.05;;;;;;;;;;4765571;30;20543;-73
2022/06/02 02:01:32;;;;;;;18.10;11.40;;;;;;;;;;4765304;30;20059;-74
2022/06/02 02:04:27;;;;;;;31.02;18.60;;;;;;;;;;4781443;29;20074;-73
2022/06/02 02:06:57;;;;;;;18.63;8.27;;;;;;;;;;4782144;30;20425;-74
2022/06/02 02:09:44;;;;;;;10.75;5.72;;;;;;;;;;4782432;30;21182;-73
2022/06/02 02:12:58;;;;;;;12.55;6.03;;;;;;;;;;4781611;30;20688;-75
2022/06/02 02:15:37;;;;;;;13.45;5.40;;;;;;;;;;4781839;30;20051;-73
2022/06/02 02:18:25;;;;;;;8.70;5.20;;;;;;;;;;4782052;30;20055;-73
2022/06/02 02:21:41;;;;;;;12.70;4.57;;;;;;;;;;4781721;30;20051;-75
2022/06/02 02:24:27;;;;;;;6.20;3.78;;;;;;;;;;4782212;30;20063;-75
2022/06/02 02:27:13;;;;;;;5.72;3.40;;;;;;;;;;4765216;30;20051;-73
2022/06/02 02:30:07;;;;;;;6.38;3.25;;;;;;;;;;4782012;30;20055;-73
2022/06/02 02:33:12;;;;;;;6.40;3.35;;;;;;;;;;4781434;30;20423;-74
2022/06/02 02:36:07;;;;;;;11.40;3.20;;;;;;;;;;4782485;30;20434;-75
2022/06/02 02:38:43;;;;;;;10.23;4.45;;;;;;;;;;4781782;30;20058;-75
2022/06/02 02:41:24;;;;;;;15.15;10.18;;;;;;;;;;4781193;30;20051;-75
2022/06/02 02:44:03;;;;;;;15.68;10.57;;;;;;;;;;4781600;30;20056;-77
2022/06/02 02:46:41;;;;;;;16.77;10.93;;;;;;;;;;4781538;30;20427;-75
2022/06/02 02:49:52;;;;;;;19.15;11.80;;;;;;;;;;4781585;30;20054;-73
2022/06/02 02:52:35;;;;;;;;;;;;;;;;;;4774891;30;20074;-74
2022/06/02 02:55:08;;;;;;;16.83;10.05;;;;;;;;;;4781612;30;19936;-74
2022/06/02 02:57:57;;;;;;;25.27;12.77;;;;;;;;;;4781697;30;20055;-74
2022/06/02 03:00:36;;;;;;;24.55;14.43;;;;;;;;;;4781352;30;20674;-75
2022/06/02 03:03:26;;;;;;;24.88;14.48;;;;;;;;;;4781259;30;20583;-75
2022/06/02 03:05:59;;;;;;;23.98;15.02;;;;;;;;;;4781290;30;20059;-73
2022/06/02 03:08:37;;;;;;;30.77;16.48;;;;;;;;;;4781511;30;20135;-73
2022/06/02 03:11:40;;;;;;;27.25;15.18;;;;;;;;;;4781466;30;20043;-73
2022/06/02 03:14:42;;;;;;;24.73;15.05;;;;;;;;;;4781865;30;20059;-73
2022/06/02 03:17:22;;;;;;;21.33;14.73;;;;;;;;;;4783056;29;20065;-74
2022/06/02 03:20:22;;;;;;;29.00;14.27;;;;;;;;;;4782784;30;20051;-73
2022/06/02 03:23:25;;;;;;;21.42;11.13;;;;;;;;;;4780795;30;20138;-74
2022/06/02 03:26:17;;;;;;;17.90;11.15;;;;;;;;;;4781493;30;20523;-75
2022/06/02 03:29:07;;;;;;;11.63;9.50;;;;;;;;;;4784909;30;20055;-74
2022/06/02 03:32:25;;;;;;;18.08;10.27;;;;;;;;;;4784560;30;20058;-74
2022/06/02 03:35:27;;;;;;;15.00;8.02;;;;;;;;;;4784817;30;20051;-74
2022/06/02 03:38:33;;;;;;;11.13;8.38;;;;;;;;;;4745921;30;20626;-73
2022/06/02 03:41:14;;;;;;;11.00;8.63;;;;;;;;;;4784436;30;20444;-73
2022/06/02 03:43:53;;;;;;;12.82;8.38;;;;;;;;;;4768980;30;20070;-74
2022/06/02 03:46:45;;;;;;;13.18;8.70;;;;;;;;;;4785005;30;20051;-72
2022/06/02 03:49:51;;;;;;;14.45;8.80;;;;;;;;;;4784607;30;20051;-74
2022/06/02 03:52:35;;;;;;;9.70;7.25;;;;;;;;;;4711061;30;20069;-73
2022/06/02 03:55:27;;;;;;;13.20;8.70;;;;;;;;;;4779580;30;20442;-75
2022/06/02 03:58:29;;;;;;;10.77;7.32;;;;;;;;;;4784112;30;20047;-73
2022/06/02 04:01:05;;;;;;;18.50;8.20;;;;;;;;;;4767248;30;20074;-75
2022/06/02 04:03:58;;;;;;;13.18;8.25;;;;;;;;;;4784053;30;20054;-74
2022/06/02 04:06:52;;;;;;;12.98;9.40;;;;;;;;;;4784763;30;20047;-73
2022/06/02 04:09:32;;;;;;;15.02;9.20;;;;;;;;;;4784267;30;20433;-74
2022/06/02 04:15:36;;;;;;;13.03;8.90;;;;;;;;;;4783743;30;20063;-75
2022/06/02 04:18:45;;;;;;;14.63;8.35;;;;;;;;;;4783802;30;20051;-74
2022/06/02 04:21:21;;;;;;;10.43;8.30;;;;;;;;;;4783710;30;20514;-73
2022/06/02 04:24:07;;;;;;;13.35;8.60;;;;;;;;;;4783910;30;20051;-74
2022/06/02 04:27:23;;;;;;;11.25;8.40;;;;;;;;;;4784110;30;20057;-75
2022/06/02 04:30:10;;;;;;;11.45;8.20;;;;;;;;;;4709627;30;20530;-73
2022/06/02 04:33:05;;;;;;;12.15;8.13;;;;;;;;;;4710978;30;20056;-73
2022/06/02 04:35:57;;;;;;;13.10;7.63;;;;;;;;;;4775510;30;20074;-72
2022/06/02 04:38:35;;;;;;;;;;;;;;;;;;4784691;30;20107;-75
2022/06/02 04:41:26;;;;;;;11.15;7.28;;;;;;;;;;4783620;30;19937;-75
2022/06/02 04:43:59;;;;;;;;;;;;;;;;;;4783831;30;20066;-73
2022/06/02 04:46:51;;;;;;;10.48;6.93;;;;;;;;;;4783533;30;20377;-72
2022/06/02 04:49:40;;;;;;;16.50;8.88;;;;;;;;;;4783655;30;20512;-74
2022/06/02 04:52:39;;;;;;;12.88;8.32;;;;;;;;;;4766842;30;20070;-74
2022/06/02 04:55:18;;;;;;;16.33;9.68;;;;;;;;;;4783855;30;20412;-73
2022/06/02 04:57:56;;;;;;;15.63;10.75;;;;;;;;;;4782869;30;20056;-73
2022/06/02 05:00:43;;;;;;;18.90;12.35;;;;;;;;;;4783507;30;20043;-75
2022/06/02 05:03:18;;;;;;;24.35;12.13;;;;;;;;;;4783431;30;20523;-74
2022/06/02 05:05:57;;;;;;;17.42;12.15;;;;;;;;;;4783018;30;20055;-73
2022/06/02 05:08:46;;;;;;;21.42;11.45;;;;;;;;;;4782953;30;20068;-72
2022/06/02 05:11:35;;;;;;;19.35;10.80;;;;;;;;;;4783389;30;20053;-75
2022/06/02 05:14:15;;;;;;;18.15;10.50;;;;;;;;;;4783028;30;20059;-74
2022/06/02 05:17:05;;;;;;;15.13;10.20;;;;;;;;;;4783011;30;20051;-74
2022/06/02 05:19:35;;;;;;;14.60;10.32;;;;;;;;;;4772261;30;20070;-73
2022/06/02 05:22:44;;;;;;;18.98;12.00;;;;;;;;;;4782694;30;20059;-74
2022/06/02 05:25:46;;;;;;;17.30;12.10;;;;;;;;;;4774924;30;20432;-74
2022/06/02 05:29:10;;;;;;;15.32;11.48;;;;;;;;;;4782360;30;20139;-72
2022/06/02 05:32:11;;;;;;;17.25;11.43;;;;;;;;;;4710051;30;20084;-73
2022/06/02 05:35:06;;;;;;;18.85;11.32;;;;;;;;;;4782774;30;20051;-73
2022/06/02 05:38:07;;;;;;;18.27;11.48;;;;;;;;;;4782244;30;20066;-74
2022/06/02 05:40:41;;;;;;;14.93;11.68;;;;;;;;;;4782151;29;20062;-74
2022/06/02 05:43:38;;;;;;;14.30;10.70;;;;;;;;;;4782494;30;20059;-74
2022/06/02 05:46:28;;;;;;;18.80;11.38;;;;;;;;;;4782832;30;20047;-74
2022/06/02 05:49:47;;;;;;;18.58;11.73;;;;;;;;;;4781779;30;20051;-74
2022/06/02 05:52:40;;;;;;;16.02;12.23;;;;;;;;;;4769588;30;20071;-73
2022/06/02 05:55:45;;;;;;;18.95;12.48;;;;;;;;;;4782812;30;20397;-75
2022/06/02 05:58:43;;;;;;;23.38;12.70;;;;;;;;;;4781700;30;20520;-72
2022/06/02 06:01:34;;;;;;;24.10;12.18;;;;;;;;;;4782567;30;20066;-73
2022/06/02 06:04:23;;;;;;;26.20;13.43;;;;;;;;;;4782049;30;20059;-73
2022/06/02 06:07:09;;;;;;;21.10;13.23;;;;;;;;;;4782821;30;20058;-74
2022/06/02 06:09:58;;;;;;;20.58;12.52;;;;;;;;;;4782524;30;20047;-74
2022/06/02 06:12:39;;;;;;;22.25;12.05;;;;;;;;;;4782455;30;20059;-73
2022/06/02 06:15:12;;;;;;;18.63;11.60;;;;;;;;;;4782324;30;20055;-73
2022/06/02 06:18:10;;;;;;;24.58;11.82;;;;;;;;;;4781784;30;20062;-75
2022/06/02 06:21:07;;;;;;;17.17;11.32;;;;;;;;;;4782111;30;20051;-72
2022/06/02 06:24:13;;;;;;;19.60;11.73;;;;;;;;;;4782252;30;20059;-74
2022/06/02 06:27:10;;;;;;;17.38;11.13;;;;;;;;;;4707849;30;20405;-73
2022/06/02 06:30:06;;;;;;;26.48;11.27;;;;;;;;;;4765472;30;20056;-72
2022/06/02 06:32:58;;;;;;;18.13;10.07;;;;;;;;;;4765777;30;20055;-73
2022/06/02 06:36:03;;;;;;;12.85;10.00;;;;;;;;;;4781973;30;20423;-72
2022/06/02 06:39:08;;;;;;;14.80;11.02;;;;;;;;;;4781274;30;20062;-72
2022/06/02 06:42:06;;;;;;;13.13;10.50;;;;;;;;;;4781386;30;20047;-72
2022/06/02 06:44:45;;;;;;;19.55;10.43;;;;;;;;;;4781877;30;20047;-75
2022/06/02 06:47:51;;;;;;;13.60;9.50;;;;;;;;;;4781697;30;20496;-74
2022/06/02 06:50:25;;;;;;;18.40;10.65;;;;;;;;;;4708103;30;20088;-74
2022/06/02 06:53:26;;;;;;;13.57;10.25;;;;;;;;;;4771445;30;20063;-72
2022/06/02 06:56:16;;;;;;;15.27;10.38;;;;;;;;;;4781043;30;20062;-73
2022/06/02 06:59:24;;;;;;;16.63;9.68;;;;;;;;;;4781947;30;20055;-73
2022/06/02 07:02:08;;;;;;;17.80;10.40;;;;;;;;;;4781233;30;20554;-73
2022/06/02 07:05:03;;;;;;;13.05;9.75;;;;;;;;;;4781562;30;20059;-73
2022/06/02 07:07:50;;;;;;;12.18;9.13;;;;;;;;;;4780086;30;20070;-75
2022/06/02 07:10:31;;;;;;;16.67;9.65;;;;;;;;;;4780691;30;20051;-73
2022/06/02 07:13:12;;;;;;;15.35;11.40;;;;;;;;;;4781323;30;20055;-75
2022/06/02 07:15:51;;;;;;;;;;;;;;;;;;4781788;30;20547;-75
2022/06/02 07:18:21;;;;;;;10.95;8.88;;;;;;;;;;4765136;30;19929;-73
2022/06/02 07:21:09;;;;;;;12.23;9.20;;;;;;;;;;4781010;30;20051;-74
2022/06/02 07:24:04;;;;;;;17.20;9.80;;;;;;;;;;4782016;30;20055;-72
2022/06/02 07:27:16;;;;;;;16.27;9.73;;;;;;;;;;4764006;30;20071;-74
2022/06/02 07:30:13;;;;;;;16.13;9.85;;;;;;;;;;4781344;30;20710;-73
2022/06/02 07:33:16;;;;;;;13.32;9.50;;;;;;;;;;4780680;30;20062;-73
2022/06/02 07:36:01;;;;;;;21.10;9.88;;;;;;;;;;4752115;30;20056;-74
2022/06/02 07:39:13;;;;;;;19.70;10.43;;;;;;;;;;4764180;30;20543;-74
2022/06/02 07:41:48;;;;;;;18.05;10.20;;;;;;;;;;4775647;30;20056;-74
2022/06/02 07:44:48;;;;;;;19.05;9.25;;;;;;;;;;4780752;30;20831;-75
2022/06/02 07:47:49;;;;;;;11.80;8.10;;;;;;;;;;4781056;30;20062;-74
2022/06/02 07:50:24;;;;;;;13.48;8.25;;;;;;;;;;4781648;30;20508;-74
2022/06/02 07:53:15;;;;;;;16.15;8.52;;;;;;;;;;4781084;30;20059;-73
2022/06/02 07:56:23;;;;;;;9.10;6.57;;;;;;;;;;4765479;30;20058;-74
2022/06/02 07:59:18;;;;;;;9.95;6.85;;;;;;;;;;4706552;30;20069;-72
2022/06/02 08:02:05;;;;;;;10.25;6.32;;;;;;;;;;4690946;30;20448;-73
2022/06/02 08:04:43;;;;;;;8.82;6.10;;;;;;;;;;4769826;30;20078;-73
2022/06/02 08:07:52;;;;;;;11.70;5.80;;;;;;;;;;4784508;30;20058;-73
2022/06/02 08:10:58;;;;;;;13.27;5.82;;;;;;;;;;4746495;30;20421;-75
2022/06/02 08:13:45;;;;;;;7.32;5.43;;;;;;;;;;4782053;30;20056;-72
2022/06/02 08:16:21;;;;;;;13.88;5.22;;;;;;;;;;4784159;30;20059;-74
2022/06/02 08:19:00;;;;;;;10.38;5.22;;;;;;;;;;4768882;30;20066;-75
2022/06/02 08:21:50;;;;;;;10.40;5.55;;;;;;;;;;4783700;30;20047;-74
2022/06/02 08:24:51;;;;;;;6.05;5.00;;;;;;;;;;4784015;30;20091;-74
2022/06/02 08:27:50;;;;;;;6.55;5.07;;;;;;;;;;4783131;30;20512;-73
2022/06/02 08:30:46;;;;;;;6.05;4.95;;;;;;;;;;4783845;30;20047;-72
2022/06/02 08:33:38;;;;;;;9.25;4.90;;;;;;;;;;4777378;30;20070;-75
2022/06/02 08:36:15;;;;;;;6.30;5.63;;;;;;;;;;4783405;30;20516;-72
2022/06/02 08:38:49;;;;;;;6.53;4.78;;;;;;;;;;4783923;30;20059;-74
2022/06/02 08:41:55;;;;;;;17.92;4.93;;;;;;;;;;4783100;30;20059;-73
2022/06/02 08:45:02;;;;;;;12.48;4.93;;;;;;;;;;4783184;30;20066;-75
2022/06/02 08:47:47;;;;;;;10.73;4.60;;;;;;;;;;4783218;30;20054;-74
2022/06/02 08:51:00;;;;;;;7.70;5.28;;;;;;;;;;4783479;30;20416;-75
2022/06/02 08:54:07;;;;;;;7.70;4.65;;;;;;;;;;4783147;30;20051;-74
2022/06/02 08:57:16;;;;;;;10.65;7.57;;;;;;;;;;4783031;30;20047;-73
2022/06/02 09:00:20;;;;;;;9.18;6.20;;;;;;;;;;4783178;30;20534;-74
2022/06/02 09:02:59;;;;;;;11.20;5.75;;;;;;;;;;4782702;30;20389;-73
2022/06/02 09:05:50;;;;;;;8.88;5.90;;;;;;;;;;4766855;30;20054;-73
2022/06/02 09:08:38;;;;;;;10.95;6.40;;;;;;;;;;4783344;30;20043;-73
2022/06/02 09:11:17;;;;;;;9.00;6.18;;;;;;;;;;4783538;30;20059;-74
2022/06/02 09:14:30;;;;;;;9.55;6.22;;;;;;;;;;4765616;29;20411;-74
2022/06/02 09:17:18;;;;;;;13.40;6.10;;;;;;;;;;4783200;30;20487;-74
2022/06/02 09:20:09;;;;;;;9.15;6.25;;;;;;;;;;4782830;30;20051;-74
2022/06/02 09:23:12;;;;;;;20.43;5.60;;;;;;;;;;4748197;30;20428;-73
2022/06/02 09:26:10;;;;;;;12.43;6.10;;;;;;;;;;4782179;30;20325;-76
2022/06/02 09:29:07;;;;;;;10.80;5.32;;;;;;;;;;4782694;30;20051;-73
2022/06/02 09:31:55;;;;;;;7.45;6.57;;;;;;;;;;4782566;30;20059;-74
2022/06/02 09:34:52;;;;;;;9.30;6.10;;;;;;;;;;4783004;30;20520;-72
2022/06/02 09:37:22;;;;;;;15.15;5.97;;;;;;;;;;4782220;30;20059;-74
2022/06/02 09:40:03;;;;;;;13.13;6.63;;;;;;;;;;4782864;30;20416;-74
2022/06/02 09:43:10;;;;;;;10.10;7.13;;;;;;;;;;4782663;30;20047;-74
2022/06/02 09:46:32;;;;;;;9.82;6.53;;;;;;;;;;4782209;30;20063;-75
2022/06/02 09:49:27;;;;;;;7.63;6.30;;;;;;;;;;4708970;30;20060;-73
2022/06/02 09:52:33;;;;;;;11.85;9.55;;;;;;;;;;4782364;30;20058;-72
2022/06/02 09:55:24;;;;;;;22.35;11.38;;;;;;;;;;4781740;30;20051;-72
2022/06/02 09:58:15;;;;;;;16.75;11.35;;;;;;;;;;4782113;30;20051;-73
2022/06/02 10:01:02;;;;;;;14.93;10.85;;;;;;;;;;4782534;30;20059;-74
2022/06/02 10:03:43;;;;;;;15.70;10.20;;;;;;;;;;4781777;30;20051;-72
2022/06/02 10:06:27;;;;;;;14.88;11.05;;;;;;;;;;4781783;30;20063;-72
2022/06/02 10:09:24;;;;;;;24.83;11.65;;;;;;;;;;4781553;30;20066;-74
2022/06/02 10:15:09;;;;;;;20.27;11.65;;;;;;;;;;4765268;30;20055;-74
2022/06/02 10:18:05;;;;;;;15.60;10.18;;;;;;;;;;4781631;30;20453;-73
2022/06/02 10:20:47;;;;;;;21.02;11.48;;;;;;;;;;4781883;30;20059;-74
2022/06/02 10:23:56;;;;;;;18.77;10.93;;;;;;;;;;4764915;30;20547;-73
2022/06/02 10:26:46;;;;;;;15.82;10.52;;;;;;;;;;4705941;30;20068;-75
2022/06/02 10:29:57;;;;;;;16.42;11.27;;;;;;;;;;4708590;30;20163;-74
2022/06/02 10:32:53;;;;;;;22.65;9.50;;;;;;;;;;4778708;30;20527;-72
2022/06/02 10:35:49;;;;;;;11.43;10.10;;;;;;;;;;4781736;30;20051;-75
2022/06/02 10:38:33;;;;;;;17.30;11.57;;;;;;;;;;4764429;30;20059;-73
2022/06/02 10:41:22;;;;;;;13.70;9.45;;;;;;;;;;4781152;30;20062;-74
2022/06/02 10:44:18;;;;;;;11.32;9.68;;;;;;;;;;4781297;30;20059;-76
2022/06/02 10:47:27;;;;;;;17.92;10.35;;;;;;;;;;4780810;30;20051;-75
2022/06/02 10:50:17;;;;;;;15.73;9.07;;;;;;;;;;4780837;30;20055;-74
2022/06/02 10:53:24;;;;;;;14.93;9.15;;;;;;;;;;4780875;30;20086;-73
2022/06/02 10:56:33;;;;;;;19.08;9.68;;;;;;;;;;4781322;30;20060;-73
2022/06/02 10:59:24;;;;;;;14.63;9.82;;;;;;;;;;4779137;30;20066;-72
2022/06/02 11:02:38;;;;;;;12.55;10.05;;;;;;;;;;4780740;30;20434;-71
2022/06/02 11:05:37;;;;;;;16.17;9.27;;;;;;;;;;4779821;30;20055;-72
2022/06/02 11:08:43;;;;;;;17.48;8.02;;;;;;;;;;4779246;30;20054;-73
2022/06/02 11:11:39;;;;;;;12.77;7.32;;;;;;;;;;4778361;30;20051;-75
2022/06/02 11:14:26;;;;;;;11.25;7.38;;;;;;;;;;4778056;30;20054;-71
2022/06/02 11:17:20;;;;;;;11.55;7.55;;;;;;;;;;4780940;30;20416;-75
2022/06/02 11:20:22;;;;;;;11.25;7.72;;;;;;;;;;4781351;30;20048;-75
2022/06/02 11:23:30;;;;;;;8.68;7.75;;;;;;;;;;4781502;30;20058;-73
2022/06/02 11:26:33;;;;;;;11.70;8.15;;;;;;;;;;4779935;30;20397;-74
2022/06/02 11:29:16;;;;;;;9.90;7.28;;;;;;;;;;4781468;30;20539;-71
2022/06/02 11:32:04;;;;;;;;;;;;;;;;;;4781475;30;20051;-71
2022/06/02 11:35:12;;;;;;;13.07;7.47;;;;;;;;;;4781174;30;20306;-72
2022/06/02 11:38:00;;;;;;;13.10;6.95;;;;;;;;;;4782144;29;20543;-72
2022/06/02 11:41:02;;;;;;;10.30;7.47;;;;;;;;;;4784671;30;20051;-71
2022/06/02 11:44:06;;;;;;;14.75;7.72;;;;;;;;;;4783940;30;20113;-74
2022/06/02 11:47:02;;;;;;;13.73;8.02;;;;;;;;;;4784156;30;20063;-73
2022/06/02 11:50:05;;;;;;;22.20;8.07;;;;;;;;;;4784325;30;21090;-72
2022/06/02 11:52:59;;;;;;;8.63;4.95;;;;;;;;;;4785211;30;20066;-72
2022/06/02 11:55:29;;;;;;;8.00;4.65;;;;;;;;;;4784471;30;20051;-72
2022/06/02 11:58:15;;;;;;;5.40;4.30;;;;;;;;;;4784093;30;20047;-73
2022/06/02 12:00:58;;;;;;;8.95;4.00;;;;;;;;;;4784201;30;20062;-72
2022/06/02 12:04:07;;;;;;;9.52;3.95;;;;;;;;;;4783964;30;20435;-72
2022/06/02 12:07:14;;;;;;;10.48;4.38;;;;;;;;;;4710555;30;20573;-72
2022/06/02 12:10:21;;;;;;;8.20;3.70;;;;;;;;;;4710566;30;20074;-73
2022/06/02 12:13:18;;;;;;;7.60;3.17;;;;;;;;;;4784019;30;20051;-72
2022/06/02 12:15:57;;;;;;;11.95;3.70;;;;;;;;;;4784318;30;20073;-73
2022/06/02 12:18:53;;;;;;;8.10;3.22;;;;;;;;;;4784398;30;20062;-73
2022/06/02 12:21:41;;;;;;;4.97;2.67;;;;;;;;;;4757853;30;20074;-72
2022/06/02 12:24:29;;;;;;;3.60;2.35;;;;;;;;;;4784554;30;20500;-73
2022/06/02 12:27:02;;;;;;;6.47;2.60;;;;;;;;;;4783701;30;20052;-72
2022/06/02 12:29:39;;;;;;;9.77;2.78;;;;;;;;;;4783696;30;20619;-72
2022/06/02 12:32:31;;;;;;;21.55;2.97;;;;;;;;;;4783651;30;20059;-77
2022/06/02 12:35:22;;;;;;;12.45;1.92;;;;;;;;;;4783819;30;20055;-72
2022/06/02 12:38:08;;;;;;;4.75;1.95;;;;;;;;;;4783385;30;20055;-73
2022/06/02 12:41:04;;;;;;;11.27;1.92;;;;;;;;;;4783602;30;20062;-72
2022/06/02 12:44:12;;;;;;;6.80;1.85;;;;;;;;;;4767451;30;20055;-72
2022/06/02 12:47:13;;;;;;;8.95;1.95;;;;;;;;;;4783373;30;20066;-74
2022/06/02 12:49:43;;;;;;;;;;;;;;;;;;4783782;29;20412;-71
2022/06/02 12:52:54;;;;;;;7.22;1.70;;;;;;;;;;4783970;30;20310;-73
2022/06/02 12:55:40;;;;;;;4.95;1.67;;;;;;;;;;4784006;30;20400;-74
2022/06/02 12:58:34;;;;;;;5.28;1.83;;;;;;;;;;4783030;30;20675;-74
2022/06/02 13:01:26;;;;;;;8.05;2.03;;;;;;;;;;4783070;30;20416;-71
2022/06/02 13:04:17;;;;;;;12.15;2.70;;;;;;;;;;4782996;30;20497;-74
2022/06/02 13:07:00;;;;;;;5.60;2.10;;;;;;;;;;4783047;30;20058;-72
2022/06/02 13:09:48;;;;;;;6.18;2.40;;;;;;;;;;4782961;30;20058;-72
2022/06/02 13:12:36;;;;;;;5.10;2.00;;;;;;;;;;4783429;30;20059;-72
2022/06/02 13:15:43;;;;;;;11.80;2.42;;;;;;;;;;4782858;30;20527;-72
2022/06/02 13:18:34;;;;;;;11.10;2.05;;;;;;;;;;4767165;30;20063;-74
2022/06/02 13:21:28;;;;;;;7.07;1.80;;;;;;;;;;4782719;30;20054;-74
2022/06/02 13:24:25;;;;;;;4.05;1.90;;;;;;;;;;4782913;30;20063;-72
2022/06/02 13:26:55;;;;;;;3.35;1.65;;;;;;;;;;4781975;30;20412;-72
2022/06/02 13:29:34;;;;;;;7.13;2.53;;;;;;;;;;4782588;30;20063;-74
2022/06/02 13:32:41;;;;;;;3.10;1.65;;;;;;;;;;4782983;30;20597;-75
2022/06/02 13:35:35;;;;;;;4.05;1.83;;;;;;;;;;4766170;30;20528;-73
2022/06/02 13:38:41;;;;;;;5.53;1.73;;;;;;;;;;4782462;30;20585;-73
2022/06/02 13:41:54;;;;;;;6.35;2.30;;;;;;;;;;4782752;30;20051;-73
2022/06/02 13:44:42;;;;;;;9.18;1.88;;;;;;;;;;4782832;30;20567;-72
2022/06/02 13:47:38;;;;;;;13.63;2.70;;;;;;;;;;4782117;30;20085;-75
2022/06/02 13:50:37;;;;;;;8.80;2.38;;;;;;;;;;4780866;30;21055;-72
2022/06/02 13:53:26;;;;;;;4.93;2.03;;;;;;;;;;4782230;30;20055;-72
2022/06/02 13:59:09;;;;;;;9.75;2.17;;;;;;;;;;4781996;30;20074;-73
2022/06/02 14:01:51;;;;;;;7.32;2.30;;;;;;;;;;4782090;30;20054;-73
2022/06/02 14:04:38;;;;;;;11.18;2.42;;;;;;;;;;4782145;30;20051;-73
2022/06/02 14:07:35;;;;;;;13.02;2.72;;;;;;;;;;4782132;30;20077;-74
2022/06/02 14:10:26;;;;;;;9.10;2.05;;;;;;;;;;4775986;30;20408;-72
2022/06/02 14:13:21;;;;;;;10.60;3.17;;;;;;;;;;4764578;30;20055;-72
2022/06/02 14:16:01;;;;;;;11.38;2.20;;;;;;;;;;4781710;30;20059;-73
2022/06/02 14:18:48;;;;;;;9.95;2.42;;;;;;;;;;4781781;30;20047;-76
2022/06/02 14:21:35;;;;;;;4.78;2.90;;;;;;;;;;4781398;30;20420;-73
2022/06/02 14:24:38;;;;;;;6.22;2.15;;;;;;;;;;4782024;30;20543;-73
2022/06/02 14:27:19;;;;;;;5.13;2.20;;;;;;;;;;4754743;30;20074;-73
2022/06/02 14:30:09;;;;;;;6.78;2.40;;;;;;;;;;4781104;30;20043;-73
2022/06/02 14:32:40;;;;;;;12.70;2.92;;;;;;;;;;4781350;30;20397;-72
2022/06/02 14:35:32;;;;;;;6.72;2.38;;;;;;;;;;4781968;30;20051;-73
2022/06/02 14:38:21;;;;;;;10.52;2.60;;;;;;;;;;4780888;30;20096;-77
2022/06/02 14:41:22;;;;;;;5.65;2.03;;;;;;;;;;4781110;30;20811;-73
2022/06/02 14:44:14;;;;;;;;;;;;;;;;;;4773678;30;20059;-73
2022/06/02 14:46:52;;;;;;;6.05;1.90;;;;;;;;;;4781118;30;20411;-73
2022/06/02 14:49:47;;;;;;;11.35;2.70;;;;;;;;;;4781483;30;20051;-73
2022/06/02 14:52:41;;;;;;;5.10;2.30;;;;;;;;;;4781268;30;20051;-73
2022/06/02 14:55:19;;;;;;;7.68;2.60;;;;;;;;;;4765448;30;20055;-73
2022/06/02 14:58:07;;;;;;;15.98;2.67;;;;;;;;;;4780773;30;20071;-73
2022/06/02 15:00:50;;;;;;;7.20;2.60;;;;;;;;;;4781537;30;20084;-72
2022/06/02 15:03:38;;;;;;;7.25;2.60;;;;;;;;;;4781548;30;20055;-72
2022/06/02 15:06:29;;;;;;;7.40;3.13;;;;;;;;;;4781693;30;20047;-73
2022/06/02 15:09:13;;;;;;;13.50;2.70;;;;;;;;;;4781205;30;20062;-72
2022/06/02 15:12:01;;;;;;;16.55;3.35;;;;;;;;;;4781892;29;20058;-73
2022/06/02 15:14:34;;;;;;;5.70;2.60;;;;;;;;;;4785169;30;20062;-73
2022/06/02 15:17:22;;;;;;;12.82;2.75;;;;;;;;;;4785187;30;20058;-74
2022/06/02 15:20:10;;;;;;;5.63;3.00;;;;;;;;;;4784560;30;20059;-74
2022/06/02 15:23:28;;;;;;;10.35;2.17;;;;;;;;;;4784785;30;20828;-75
2022/06/02 15:26:07;;;;;;;4.82;2.85;;;;;;;;;;4784506;30;20827;-74
2022/06/02 15:29:17;;;;;;;5.88;2.40;;;;;;;;;;4784962;30;20531;-77
2022/06/02 15:31:58;;;;;;;4.82;2.40;;;;;;;;;;4785028;30;20066;-74
2022/06/02 15:35:07;;;;;;;4.15;2.40;;;;;;;;;;4784061;30;20058;-73
2022/06/02 15:38:01;;;;;;;12.30;2.63;;;;;;;;;;4784514;30;20047;-74
2022/06/02 15:40:42;;;;;;;10.88;2.55;;;;;;;;;;4784227;30;20052;-73
2022/06/02 15:43:31;;;;;;;14.27;2.58;;;;;;;;;;4785151;30;20047;-75
2022/06/02 15:46:24;;;;;;;7.28;2.50;;;;;;;;;;4784303;30;20058;-75
2022/06/02 15:48:59;;;;;;;8.93;3.10;;;;;;;;;;4783545;30;20051;-73
2022/06/02 15:51:41;;;;;;;10.13;2.88;;;;;;;;;;4784316;30;20059;-74
2022/06/02 15:54:50;;;;;;;4.70;2.83;;;;;;;;;;4783853;30;20047;-74
2022/06/02 15:57:55;;;;;;;9.90;2.47;;;;;;;;;;4783932;30;20059;-73
2022/06/02 16:00:34;;;;;;;8.35;2.78;;;;;;;;;;4784263;30;20062;-73
2022/06/02 16:03:42;;;;;;;9.93;2.80;;;;;;;;;;4784440;30;20055;-74
2022/06/02 16:06:50;;;;;;;13.90;2.40;;;;;;;;;;4784180;30;20518;-72
2022/06/02 16:13:00;;;;;;;4.25;2.20;;;;;;;;;;4767379;30;20766;-74
2022/06/02 16:16:05;;;;;;;5.15;1.95;;;;;;;;;;4768575;30;20531;-74
2022/06/02 16:18:59;;;;;;;7.70;2.42;;;;;;;;;;4766271;30;20059;-74
2022/06/02 16:22:10;;;;;;;4.13;1.80;;;;;;;;;;4768950;30;20428;-75
2022/06/02 16:25:13;;;;;;;4.00;1.48;;;;;;;;;;4782951;29;20047;-72
2022/06/02 16:27:58;;;;;;;6.03;1.67;;;;;;;;;;4783215;30;20058;-74
2022/06/02 16:30:34;;;;;;;6.80;1.60;;;;;;;;;;4784112;30;20055;-75
2022/06/02 16:33:37;;;;;;;2.63;1.30;;;;;;;;;;4783900;30;20054;-74
2022/06/02 16:36:26;;;;;;;3.47;1.48;;;;;;;;;;4782826;30;20547;-74
2022/06/02 16:39:36;;;;;;;5.43;1.80;;;;;;;;;;4783305;30;20062;-74
2022/06/02 16:42:44;;;;;;;10.43;1.45;;;;;;;;;;4783100;30;20062;-73
2022/06/02 16:46:04;;;;;;;3.67;1.40;;;;;;;;;;4782065;30;20055;-73
2022/06/02 16:48:43;;;;;;;4.00;1.35;;;;;;;;;;4783187;30;20063;-72
2022/06/02 16:51:28;;;;;;;3.67;1.60;;;;;;;;;;4783158;30;20059;-73
2022/06/02 16:54:23;;;;;;;4.93;1.70;;;;;;;;;;4783168;30;20051;-73
2022/06/02 16:57:11;;;;;;;6.88;1.60;;;;;;;;;;4783958;30;20059;-73
2022/06/02 17:00:13;;;;;;;7.18;1.45;;;;;;;;;;4782210;30;20063;-74
2022/06/02 17:03:11;;;;;;;7.78;1.70;;;;;;;;;;4782754;30;20541;-72
2022/06/02 17:06:08;;;;;;;9.50;1.80;;;;;;;;;;4782516;30;20520;-71
2022/06/02 17:09:11;;;;;;;3.65;1.65;;;;;;;;;;4782762;30;20058;-73
2022/06/02 17:12:10;;;;;;;2.63;1.40;;;;;;;;;;4749729;30;20428;-72
2022/06/02 17:15:01;;;;;;;6.75;1.85;;;;;;;;;;4782549;30;20059;-73